Latest Weather Observations for McArthur River Mine

IDD60801

Issued at 12:01 pm CST Tuesday 2 March 2021 (issued every 10 minutes, with the page automatically refreshed every 10 minutes)

About weather observations | Map of weather stations | Latest weather observations for NT | Other Formats
Station Details ID: 014704 Name: MCARTHUR RIVER MINE AIRPORT Lat: -16.44 Lon: 136.08 Height: 40.0 m
Data from the previous 72 hours. | See also: Recent months at McArthur River Mine
Date/Time
CST
Temp
°C
App
Temp
°C
Dew
Point
°C
Rel
Hum
%
Delta-T
°C
Wind Press
QNH
hPa
Press
MSL
hPa
Rain since
9am
mm
Dir  Spd
km/h
Gust
km/h
Spd
kts
Gust
kts
02/12:00pm 34.8 36.7 23.5 52 7.9 WSW 19 30 10 16 1006.5 1006.2 0.0
02/11:30am 34.2 36.2 23.9 55 7.2 WSW 20 30 11 16 1007.2 1006.9 0.0
02/11:00am 33.4 36.4 24.0 58 6.6 WSW 15 22 8 12 1007.7 1007.4 0.0
02/10:30am 32.1 34.7 23.9 62 5.7 WSW 17 22 9 12 1008.2 1007.9 0.0
02/10:00am 31.6 35.5 24.2 65 5.2 SW 11 17 6 9 1008.6 1008.3 0.0
02/09:30am 31.0 35.4 24.4 68 4.6 SSW 9 15 5 8 1008.6 1008.3 0.0
02/09:00am 29.6 34.0 23.8 71 4.0 S 7 13 4 7 1008.4 1008.1 0.0
02/08:30am 26.6 29.6 20.9 71 3.8 SE 6 9 3 5 1008.4 1008.1 0.0
02/08:00am 23.8 26.6 18.0 70 3.6 CALM 0 0 0 0 1008.0 1007.7 0.0
02/07:30am 22.8 24.4 17.0 70 3.6 SSE 4 7 2 4 1007.4 1007.1 0.0
02/07:00am 20.7 21.8 14.6 68 3.6 SW 2 6 1 3 1007.0 1006.7 0.0
02/06:30am 20.3 21.6 14.0 67 3.7 CALM 0 0 0 0 1006.6 1006.3 0.0
02/06:00am 20.4 21.6 13.8 66 3.8 CALM 0 0 0 0 1006.2 1005.9 0.0
02/05:30am 20.6 21.8 13.8 65 3.9 CALM 0 0 0 0 1005.8 1005.5 0.0
02/05:00am 20.8 22.0 13.7 64 4.1 CALM 0 6 0 3 1005.4 1005.1 0.0
02/04:30am 20.7 20.9 13.2 62 4.3 SE 4 7 2 4 1005.4 1005.1 0.0
02/04:00am 20.9 21.8 12.8 60 4.6 CALM 0 0 0 0 1005.2 1004.9 0.0
02/03:30am 21.0 21.8 12.7 59 4.7 CALM 0 0 0 0 1005.2 1004.9 0.0
02/03:00am 21.4 22.2 12.5 57 5.1 CALM 0 0 0 0 1005.1 1004.8 0.0
02/02:30am 21.8 22.6 12.6 56 5.2 CALM 0 0 0 0 1005.4 1005.1 0.0
02/02:00am 22.0 22.6 12.0 53 5.6 CALM 0 4 0 2 1005.5 1005.2 0.0
02/01:30am 22.3 22.8 11.7 51 6.0 CALM 0 0 0 0 1005.5 1005.2 0.0
02/01:00am 22.5 22.5 11.3 49 6.2 SE 2 7 1 4 1005.8 1005.5 0.0
02/12:30am 23.0 23.3 10.8 46 6.8 CALM 0 0 0 0 1006.0 1005.7 0.0
02/12:00am 23.4 23.5 10.1 43 7.3 CALM 0 0 0 0 1006.1 1005.8 0.0
 
Date/Time
CST
Temp
°C
App
Temp
°C
Dew
Point
°C
Rel
Hum
%
Delta-T
°C
Wind Press
QNH
hPa
Press
MSL
hPa
Rain since
9am
mm
Dir  Spd
km/h
Gust
km/h
Spd
kts
Gust
kts
01/11:30pm 23.6 23.5 9.6 41 7.6 CALM 0 6 0 3 1006.3 1006.0 0.0
01/11:00pm 23.9 23.1 8.3 37 8.3 ESE 2 7 1 4 1006.5 1006.2 0.0
01/10:30pm 24.6 22.9 7.7 34 9.0 WSW 6 9 3 5 1006.6 1006.3 0.0
01/10:00pm 24.8 23.6 6.5 31 9.5 E 2 7 1 4 1006.3 1006.0 0.0
01/09:30pm 25.6 24.6 5.8 28 10.2 CALM 0 0 0 0 1006.0 1005.7 0.0
01/09:00pm 26.5 24.7 5.5 26 10.8 NW 4 7 2 4 1005.6 1005.3 0.0
01/08:30pm 28.5 25.8 5.4 23 12.0 NW 9 9 5 5 1005.4 1005.1 0.0
01/08:00pm 28.6 25.1 3.5 20 12.6 WNW 11 11 6 6 1005.4 1005.1 0.0
01/07:30pm 29.4 26.4 1.8 17 13.6 WNW 7 9 4 5 1005.1 1004.8 0.0
01/07:00pm 30.8 28.0 2.1 16 14.3 W 6 9 3 5 1004.9 1004.6 0.0
01/06:30pm 34.9 32.3 4.4 15 16.2 S 7 11 4 6 1004.7 1004.4 0.0
01/06:00pm 37.1 34.5 6.2 15 17.1 SSW 9 17 5 9 1004.4 1004.1 0.0
01/05:30pm 38.0 34.8 6.9 15 17.5 SSW 13 24 7 13 1004.3 1004.0 0.0
01/05:00pm 38.5 34.9 8.2 16 17.3 SSW 17 22 9 12 1004.3 1004.0 0.0
01/04:30pm 38.6 35.4 10.0 18 16.9 SSW 17 24 9 13 1004.3 1004.0 0.0
01/04:00pm 39.1 36.5 12.0 20 16.4 SSW 17 22 9 12 1004.3 1004.0 0.0
01/03:30pm 39.0 36.7 14.1 23 15.6 SSW 19 26 10 14 1004.5 1004.2 0.0
01/03:00pm 38.7 37.1 15.1 24 15.0 SSW 17 24 9 13 1004.9 1004.6 0.0
01/02:30pm 38.5 37.9 16.7 27 14.1 SSW 15 22 8 12 1005.1 1004.8 0.0
01/02:00pm 38.2 38.6 18.1 30 13.2 S 13 20 7 11 1005.4 1005.1 0.0
01/01:30pm 37.6 38.2 18.6 33 12.6 SSW 13 22 7 12 1005.6 1005.3 0.0
01/01:00pm 37.4 38.4 20.2 36 11.6 SSW 15 20 8 11 1006.0 1005.7 0.0
01/12:30pm 37.0 39.2 21.9 41 10.4 SW 13 20 7 11 1006.5 1006.2 0.0
01/12:00pm 36.1 38.9 23.0 46 9.1 SSW 13 24 7 13 1006.9 1006.6 0.0
01/11:30am 35.4 38.4 24.0 51 8.0 SSW 15 20 8 11 1007.4 1007.1 0.0
01/11:00am 34.0 36.8 24.3 57 6.8 SSW 17 20 9 11 1007.6 1007.3 0.0
01/10:30am 32.8 36.5 24.6 62 5.8 S 13 17 7 9 1007.8 1007.5 0.0
01/10:00am 31.3 34.4 24.2 66 5.0 SSW 15 20 8 11 1007.8 1007.5 0.0
01/09:30am 29.1 32.4 22.6 68 4.4 WSW 9 15 5 8 1007.8 1007.5 0.0
01/09:00am 26.3 28.8 20.2 69 4.0 W 7 11 4 6 1007.7 1007.4 0.0
01/08:30am 26.9 29.8 21.0 70 3.9 W 7 9 4 5 1007.5 1007.2 0.0
01/08:00am 24.9 26.9 19.1 70 3.7 WNW 7 9 4 5 1007.5 1007.2 0.0
01/07:30am 22.5 24.4 16.8 70 3.5 WSW 2 7 1 4 1007.3 1007.0 0.0
01/07:00am 20.5 21.9 14.4 68 3.6 CALM 0 0 0 0 1007.1 1006.8 0.0
01/06:30am 20.2 20.3 13.9 67 3.6 SSW 6 7 3 4 1006.8 1006.5 0.0
01/06:00am 20.3 21.5 13.7 66 3.8 CALM 0 0 0 0 1006.4 1006.1 0.0
01/05:30am 20.7 20.8 13.9 65 3.9 W 6 7 3 4 1006.1 1005.8 0.0
01/05:00am 21.3 21.5 14.2 64 4.1 SSW 6 7 3 4 1005.9 1005.6 0.0
01/04:30am 21.9 22.2 14.5 63 4.4 SSW 6 7 3 4 1005.6 1005.3 0.0
01/04:00am 21.5 22.7 13.9 62 4.4 CALM 0 0 0 0 1005.5 1005.2 0.0
01/03:30am 22.5 22.8 14.6 61 4.7 S 6 7 3 4 1005.5 1005.2 0.0
01/03:00am 22.9 24.0 14.7 60 4.9 SSW 2 9 1 5 1005.7 1005.4 0.0
01/02:30am 23.2 23.6 14.7 58 5.1 W 6 7 3 4 1005.8 1005.5 0.0
01/02:00am 24.1 24.7 15.3 58 5.3 NW 6 7 3 4 1005.9 1005.6 0.0
01/01:30am 25.7 26.3 16.8 58 5.5 WNW 9 13 5 7 1006.2 1005.9 0.0
01/01:00am 24.7 24.8 15.6 57 5.5 W 9 13 5 7 1006.4 1006.1 0.0
01/12:30am 24.6 24.9 15.0 55 5.8 W 7 9 4 5 1006.7 1006.4 0.0
01/12:00am 25.2 26.9 15.2 54 6.0 CALM 0 2 0 1 1006.7 1006.4 0.0
 
Date/Time
CST
Temp
°C
App
Temp
°C
Dew
Point
°C
Rel
Hum
%
Delta-T
°C
Wind Press
QNH
hPa
Press
MSL
hPa
Rain since
9am
mm
Dir  Spd
km/h
Gust
km/h
Spd
kts
Gust
kts
28/11:30pm 26.1 26.6 15.5 52 6.5 SSW 7 9 4 5 1006.7 1006.4 0.0
28/11:00pm 26.8 27.3 15.5 50 6.9 N 7 9 4 5 1006.1 1005.8 0.0
28/10:30pm 27.3 27.7 15.3 48 7.3 NNW 7 9 4 5 1006.2 1005.9 0.0
28/10:00pm 27.3 28.4 14.7 46 7.6 N 2 6 1 3 1006.0 1005.7 0.0
28/09:30pm 28.0 28.3 14.6 44 8.1 N 6 9 3 5 1005.7 1005.4 0.0
28/09:00pm 28.9 29.1 14.3 40 8.8 N 6 7 3 4 1005.5 1005.2 0.0
28/08:30pm 28.5 28.7 13.2 39 9.1 N 4 7 2 4 1005.2 1004.9 0.0
28/08:00pm 30.1 30.0 13.4 36 10.0 WNW 6 9 3 5 1004.8 1004.5 0.0
28/07:30pm 30.9 30.6 13.2 34 10.6 W 7 9 4 5 1004.5 1004.2 0.0
28/07:00pm 32.5 32.7 14.1 32 11.2 W 6 7 3 4 1004.0 1003.7 0.0
28/06:30pm 34.2 34.5 15.1 31 11.9 W 7 9 4 5 1003.7 1003.4 0.0
28/06:00pm 35.8 36.7 16.5 31 12.4 W 7 11 4 6 1003.4 1003.1 0.0
28/05:30pm 36.7 37.7 17.8 32 12.4 WNW 9 13 5 7 1003.3 1003.0 0.0
28/05:00pm 37.5 39.0 19.0 34 12.3 WSW 9 19 5 10 1003.2 1002.9 0.0
28/04:30pm 37.5 39.8 19.9 35 11.8 SSW 7 11 4 6 1003.2 1002.9 0.0
28/04:00pm 37.1 39.9 20.8 38 11.1 W 7 13 4 7 1003.4 1003.1 0.0
28/03:30pm 36.9 39.9 21.9 42 10.3 SSW 9 13 5 7 1003.6 1003.3 0.0
28/03:00pm 36.8 40.7 22.9 44 9.7 W 7 15 4 8 1004.0 1003.7 0.0
28/02:30pm 36.5 40.6 24.0 48 8.8 SSE 9 17 5 9 1004.4 1004.1 0.0
28/02:00pm 35.9 40.1 24.8 52 7.9 SSW 11 19 6 10 1004.9 1004.6 0.0
28/01:30pm 35.6 40.2 26.0 57 6.9 S 13 19 7 10 1005.5 1005.2 0.0
28/01:08pm 36.1 41.7 27.4 61 6.4 S 13 17 7 9 1005.8 1005.5 0.0
28/01:00pm 36.2 43.3 28.0 62 6.0 SSE 7 15 4 8 1005.9 1005.6 0.0
28/12:45pm 35.1 40.6 27.3 64 5.7 SW 13 20 7 11 1006.1 1005.8 0.0
28/12:30pm 34.7 41.3 27.7 67 5.1 WSW 9 13 5 7 1006.3 1006.0 0.0
28/12:00pm 33.9 40.6 27.9 71 4.4 W 9 15 5 8 1006.7 1006.4 0.0
28/11:30am 33.1 40.1 27.8 74 3.9 W 7 11 4 6 1007.2 1006.9 0.0
28/11:00am 32.2 38.7 27.6 76 3.4 W 9 17 5 9 1007.4 1007.1 0.0
28/10:30am 30.8 36.7 26.7 79 3.0 WNW 9 17 5 9 1007.8 1007.5 0.0
28/10:00am 29.7 35.0 25.9 80 2.7 WNW 9 13 5 7 1008.1 1007.8 0.0
28/09:30am 28.9 34.7 25.1 80 2.7 SSW 4 9 2 5 1008.1 1007.8 0.0
28/09:00am 27.8 32.6 24.2 81 2.5 WSW 6 9 3 5 1008.3 1008.0 -
28/08:30am 26.5 30.5 22.8 80 2.5 SW 6 9 3 5 1008.3 1008.0 -
28/08:00am 25.5 28.8 21.8 80 2.5 S 7 11 4 6 1008.0 1007.7 -
28/07:30am 24.3 27.5 20.4 79 2.5 SSW 4 6 2 3 1007.4 1007.1 -
28/07:00am 23.2 26.5 19.2 78 2.5 CALM 0 0 0 0 1007.0 1006.7 -
28/06:30am 22.7 25.0 18.5 77 2.7 WNW 4 6 2 3 1006.7 1006.4 -
28/06:00am 23.0 25.3 18.5 76 2.8 W 4 7 2 4 1006.2 1005.9 -
28/05:30am 23.1 26.1 18.4 75 3.0 CALM 0 0 0 0 1006.0 1005.7 -
28/05:00am 23.2 25.0 18.3 74 3.1 WSW 6 7 3 4 1005.6 1005.3 -
28/04:30am 23.7 25.9 18.4 72 3.4 W 4 6 2 3 1005.5 1005.2 -
28/04:00am 24.0 25.7 18.4 71 3.5 SW 7 9 4 5 1005.6 1005.3 -
28/03:30am 24.7 26.4 18.6 69 3.9 SSW 7 11 4 6 1005.6 1005.3 -
28/03:00am 25.0 28.1 18.7 68 4.0 CALM 0 0 0 0 1005.5 1005.2 -
28/02:30am 25.6 27.6 18.8 66 4.4 N 6 7 3 4 1005.6 1005.3 -
28/02:00am 26.1 28.1 18.8 64 4.7 N 6 7 3 4 1005.7 1005.4 -
28/01:30am 26.5 28.4 18.9 63 4.9 NNE 7 9 4 5 1005.7 1005.4 -
28/01:00am 26.9 28.7 18.7 60 5.3 NNE 7 11 4 6 1005.9 1005.6 -
28/12:30am 27.2 28.8 18.2 58 5.7 NNE 7 9 4 5 1006.2 1005.9 -
28/12:00am 27.0 28.3 17.5 56 6.0 NNE 7 9 4 5 1006.6 1006.3 -
 
Date/Time
CST
Temp
°C
App
Temp
°C
Dew
Point
°C
Rel
Hum
%
Delta-T
°C
Wind Press
QNH
hPa
Press
MSL
hPa
Rain since
9am
mm
Dir  Spd
km/h
Gust
km/h
Spd
kts
Gust
kts
27/11:30pm 27.1 28.0 16.7 53 6.5 NE 7 11 4 6 1006.5 1006.2 -
27/11:00pm 27.5 28.2 16.1 49 7.0 NNE 7 11 4 6 1006.7 1006.4 -
27/10:30pm 26.6 26.5 14.0 46 7.5 NE 7 11 4 6 1006.7 1006.4 -
27/10:00pm 26.1 25.7 12.5 42 7.9 NNE 6 7 3 4 1006.3 1006.0 -
27/09:30pm 26.5 27.1 11.8 40 8.5 CALM 0 0 0 0 1006.0 1005.7 -
27/09:00pm 27.1 27.1 11.2 37 9.1 N 2 6 1 3 1005.5 1005.2 -
27/08:30pm 27.5 26.4 9.8 33 9.9 NNE 6 7 3 4 1005.0 1004.7 -
27/08:00pm 28.9 27.8 10.1 31 10.6 WSW 6 9 3 5 1004.6 1004.3 -
27/07:30pm 29.9 28.6 9.9 29 11.3 W 7 7 4 4 1004.3 1004.0 -
27/07:00pm 31.9 30.8 10.6 27 12.3 WNW 7 9 4 5 1003.8 1003.5 -
27/06:30pm 34.0 33.2 11.8 26 13.2 WNW 7 7 4 4 1003.5 1003.2 -
27/06:00pm 36.1 36.1 14.1 26 13.6 SW 7 13 4 7 1003.0 1002.7 -
27/05:30pm 36.9 37.0 15.4 28 13.6 SSW 9 11 5 6 1002.8 1002.5 -
27/05:00pm 37.0 37.5 16.5 29 13.1 S 9 13 5 7 1002.8 1002.5 -
27/04:30pm 37.4 38.3 18.4 32 12.5 S 11 15 6 8 1002.8 1002.5 -
27/04:00pm 37.1 38.1 19.5 35 11.7 S 13 17 7 9 1003.0 1002.7 -
27/03:30pm 37.2 38.9 20.9 38 11.1 S 13 20 7 11 1003.1 1002.8 -
27/03:00pm 36.9 39.3 22.2 42 10.2 S 13 20 7 11 1003.4 1003.1 -
27/02:30pm 36.6 39.6 23.4 46 9.3 S 13 22 7 12 1003.6 1003.3 -
27/02:00pm 35.8 38.9 24.1 51 8.2 SSE 15 20 8 11 1003.9 1003.6 -
27/01:30pm 35.8 39.6 25.3 54 7.5 S 15 24 8 13 1004.3 1004.0 -
27/01:00pm 34.6 38.8 25.4 59 6.6 S 13 24 7 13 1005.1 1004.8 -
27/12:30pm 34.3 38.9 26.0 62 6.0 SSE 13 22 7 12 1005.5 1005.2 -

Other formats

Comma delimited format used in spreadsheet applications
http://www.bom.gov.au/fwo/IDD60801/IDD60801.94239.axf

JavaScript Object Notation format (JSON) in row-major order
http://www.bom.gov.au/fwo/IDD60801/IDD60801.94239.json

Data quality

Most of these data are generated automatically and are frequently updated. Quality checks on data are not normally performed. It is possible for incorrect values to appear. Refer to information at About Latest Weather Observations and please check the disclaimer before using these data.